createdAt,value
2023-06-15T00:01:08.521Z,21.14
2023-06-15T00:04:10.076Z,21.21
2023-06-15T00:07:11.824Z,21.22
2023-06-15T00:10:13.737Z,21.14
2023-06-15T00:13:16.703Z,21.12
2023-06-15T00:16:19.675Z,21.15
2023-06-15T00:19:21.277Z,21.14
2023-06-15T00:22:22.704Z,21.11
2023-06-15T00:25:24.114Z,21.04
2023-06-15T00:28:26.951Z,20.96
2023-06-15T00:31:28.712Z,20.98
2023-06-15T00:34:30.880Z,20.99
2023-06-15T00:37:32.355Z,20.97
2023-06-15T00:40:33.836Z,20.95
2023-06-15T00:43:36.723Z,20.87
2023-06-15T00:46:39.423Z,20.93
2023-06-15T00:49:41.406Z,20.90
2023-06-15T00:52:44.790Z,20.89
2023-06-15T00:55:48.615Z,20.92
2023-06-15T00:58:50.502Z,20.85
2023-06-15T01:01:56.063Z,20.84
2023-06-15T01:04:57.719Z,20.82
2023-06-15T01:08:03.079Z,20.78
2023-06-15T01:11:05.129Z,20.75
2023-06-15T01:14:08.146Z,20.75
2023-06-15T01:17:14.505Z,20.60
2023-06-15T01:20:28.247Z,20.57
2023-06-15T01:23:41.778Z,20.57
2023-06-15T01:26:46.510Z,20.56
2023-06-15T01:29:53.289Z,20.59
2023-06-15T01:32:55.792Z,20.61
2023-06-15T01:35:57.455Z,20.59
2023-06-15T01:39:04.106Z,20.54
2023-06-15T01:42:06.969Z,20.50
2023-06-15T01:45:09.976Z,20.49
2023-06-15T01:48:12.527Z,20.42
2023-06-15T01:51:16.356Z,20.37
2023-06-15T01:54:18.009Z,20.35
2023-06-15T01:57:21.348Z,20.29
2023-06-15T02:00:24.893Z,20.31
2023-06-15T02:03:26.355Z,20.29
2023-06-15T02:06:27.815Z,20.29
2023-06-15T02:09:30.141Z,20.25
2023-06-15T02:12:31.751Z,20.30
2023-06-15T02:15:35.144Z,20.27
2023-06-15T02:18:38.284Z,20.26
2023-06-15T02:21:39.723Z,20.21
2023-06-15T02:24:41.186Z,20.23
2023-06-15T02:27:42.613Z,20.19
2023-06-15T02:30:44.195Z,20.21
2023-06-15T02:33:45.832Z,20.14
2023-06-15T02:36:49.511Z,20.03
2023-06-15T02:39:51.103Z,20.13
2023-06-15T02:42:52.599Z,20.01
2023-06-15T02:45:55.440Z,20.08
2023-06-15T02:48:58.065Z,20.11
2023-06-15T02:51:59.844Z,20.21
2023-06-15T02:55:02.055Z,20.12
2023-06-15T02:58:03.922Z,20.02
2023-06-15T03:01:24.638Z,19.96
2023-06-15T03:04:33.990Z,19.89
2023-06-15T03:07:37.015Z,19.88
2023-06-15T03:10:53.982Z,20.06
2023-06-15T03:13:55.980Z,20.00
2023-06-15T03:16:58.519Z,19.68
2023-06-15T03:20:01.412Z,19.71
2023-06-15T03:23:03.694Z,19.50
2023-06-15T03:26:07.504Z,19.13
2023-06-15T03:29:09.122Z,18.92
2023-06-15T03:32:12.987Z,18.78
2023-06-15T03:35:15.476Z,18.92
2023-06-15T03:38:18.104Z,19.05
2023-06-15T03:41:20.392Z,19.19
2023-06-15T03:44:22.799Z,19.33
2023-06-15T03:47:25.681Z,19.45
2023-06-15T03:50:27.325Z,19.40
2023-06-15T03:53:28.949Z,19.12
2023-06-15T03:56:30.437Z,18.50
2023-06-15T03:59:31.980Z,18.08
2023-06-15T04:02:34.093Z,17.91
2023-06-15T04:05:35.865Z,18.01
2023-06-15T04:08:37.330Z,18.31
2023-06-15T04:11:38.896Z,18.48
2023-06-15T04:14:42.784Z,18.25
2023-06-15T04:17:45.288Z,18.50
2023-06-15T04:20:47.508Z,18.33
2023-06-15T04:23:49.024Z,18.50
2023-06-15T04:26:51.340Z,18.31
2023-06-15T04:29:54.043Z,18.28
2023-06-15T04:33:00.881Z,18.40
2023-06-15T04:36:05.809Z,18.62
2023-06-15T04:39:07.525Z,18.47
2023-06-15T04:42:10.150Z,18.68
2023-06-15T04:45:12.324Z,18.65
2023-06-15T04:48:14.231Z,18.44
2023-06-15T04:51:17.321Z,18.32
2023-06-15T04:54:18.827Z,18.36
2023-06-15T04:57:21.353Z,18.45
2023-06-15T05:00:23.333Z,18.66
2023-06-15T05:03:30.708Z,18.62
2023-06-15T05:06:32.551Z,18.49
2023-06-15T05:09:34.101Z,18.47
2023-06-15T05:12:39.236Z,18.67
2023-06-15T05:15:40.905Z,18.58
2023-06-15T05:18:44.120Z,18.79
2023-06-15T05:21:45.549Z,18.79
2023-06-15T05:24:47.210Z,18.98
2023-06-15T05:27:49.309Z,19.06
2023-06-15T05:30:51.335Z,19.16
2023-06-15T05:33:54.080Z,19.36
2023-06-15T05:36:57.852Z,19.47
2023-06-15T05:40:06.713Z,19.78
2023-06-15T05:43:08.208Z,19.97
2023-06-15T05:46:10.242Z,19.94
2023-06-15T05:49:12.010Z,20.11
2023-06-15T05:52:15.831Z,20.33
2023-06-15T05:55:18.442Z,20.44
2023-06-15T05:58:20.306Z,20.47
2023-06-15T06:01:21.788Z,20.53
2023-06-15T06:04:24.433Z,20.71
2023-06-15T06:07:26.107Z,20.61
2023-06-15T06:10:27.630Z,20.54
2023-06-15T06:13:43.046Z,20.62
2023-06-15T06:16:44.857Z,20.82
2023-06-15T06:19:46.753Z,20.95
2023-06-15T06:22:48.199Z,20.75
2023-06-15T06:25:49.668Z,20.60
2023-06-15T06:28:51.231Z,20.81
2023-06-15T06:31:52.681Z,20.85
2023-06-15T06:34:54.168Z,21.00
2023-06-15T06:37:55.983Z,20.89
2023-06-15T06:40:57.777Z,21.10
2023-06-15T06:43:59.253Z,21.36
2023-06-15T06:47:02.216Z,21.46
2023-06-15T06:50:06.263Z,21.68
2023-06-15T06:53:07.712Z,21.53
2023-06-15T06:56:09.117Z,21.73
2023-06-15T06:59:10.598Z,21.61
2023-06-15T07:02:13.584Z,21.37
2023-06-15T07:05:15.266Z,21.31
2023-06-15T07:08:16.793Z,21.22
2023-06-15T07:11:18.339Z,21.51
2023-06-15T07:14:20.761Z,21.52
2023-06-15T07:17:22.219Z,21.74
2023-06-15T07:20:23.728Z,21.91
2023-06-15T07:23:26.506Z,21.84
2023-06-15T07:26:28.135Z,21.71
2023-06-15T07:29:29.569Z,22.04
2023-06-15T07:32:31.090Z,22.26
2023-06-15T07:35:32.521Z,22.20
2023-06-15T07:38:33.967Z,22.60
2023-06-15T07:41:35.461Z,22.71
2023-06-15T07:44:36.924Z,22.71
2023-06-15T07:47:38.846Z,22.59
2023-06-15T07:50:40.451Z,22.57
2023-06-15T07:53:41.935Z,22.46
2023-06-15T07:56:45.418Z,22.56
2023-06-15T07:59:47.016Z,22.37
2023-06-15T08:02:49.343Z,22.50
2023-06-15T08:05:50.892Z,22.67
2023-06-15T08:08:52.751Z,23.09
2023-06-15T08:11:54.215Z,23.28
2023-06-15T08:14:55.778Z,23.25
2023-06-15T08:17:57.382Z,23.54
2023-06-15T08:24:00.280Z,24.27
2023-06-15T08:27:01.943Z,24.34
2023-06-15T08:30:03.840Z,24.42
2023-06-15T08:33:05.777Z,24.59
2023-06-15T08:36:07.347Z,24.48
2023-06-15T08:39:09.060Z,24.13
2023-06-15T08:42:10.520Z,24.13
2023-06-15T08:45:12.616Z,24.24
2023-06-15T08:48:17.599Z,24.63
2023-06-15T08:51:21.003Z,24.98
2023-06-15T08:54:23.800Z,24.89
2023-06-15T08:57:25.899Z,24.71
2023-06-15T09:00:27.405Z,24.77
2023-06-15T09:03:30.101Z,24.36
2023-06-15T09:06:31.664Z,24.39
2023-06-15T09:09:33.215Z,24.79
2023-06-15T09:12:34.646Z,25.41
2023-06-15T09:15:37.431Z,25.73
2023-06-15T09:18:52.081Z,25.86
2023-06-15T09:21:54.900Z,25.72
2023-06-15T09:24:56.413Z,26.00
2023-06-15T09:28:03.245Z,26.20
2023-06-15T09:31:05.844Z,26.33
2023-06-15T09:34:12.495Z,26.58
2023-06-15T09:37:17.264Z,26.53
2023-06-15T09:40:19.193Z,26.59
2023-06-15T09:43:21.822Z,26.82
2023-06-15T09:46:28.609Z,26.87
2023-06-15T09:49:30.509Z,26.43
2023-06-15T09:52:37.302Z,26.55
2023-06-15T09:55:44.667Z,26.88
2023-06-15T09:58:46.119Z,26.66
2023-06-15T10:01:49.608Z,26.78
2023-06-15T10:04:51.376Z,27.07
2023-06-15T10:07:53.114Z,26.67
2023-06-15T10:10:59.653Z,26.92
2023-06-15T10:14:09.760Z,27.22
2023-06-15T10:17:14.986Z,27.39
2023-06-15T10:20:18.992Z,27.09
2023-06-15T10:23:40.076Z,26.86
2023-06-15T10:26:44.690Z,26.23
2023-06-15T10:29:54.974Z,25.98
2023-06-15T10:33:34.240Z,25.95
2023-06-15T10:36:51.476Z,26.06
2023-06-15T10:39:53.228Z,26.30
2023-06-15T10:42:56.912Z,26.45
2023-06-15T10:45:58.390Z,26.33
2023-06-15T10:49:07.794Z,26.28
2023-06-15T10:52:14.036Z,26.61
2023-06-15T10:55:15.953Z,26.51
2023-06-15T10:58:18.005Z,26.12
2023-06-15T11:01:25.724Z,26.19
2023-06-15T11:04:31.482Z,26.54
2023-06-15T11:07:40.959Z,26.59
2023-06-15T11:10:43.553Z,26.69
2023-06-15T11:14:06.117Z,26.81
2023-06-15T11:17:07.705Z,26.92
2023-06-15T11:20:44.180Z,26.65
2023-06-15T11:23:46.747Z,26.81
2023-06-15T11:26:51.258Z,27.18
2023-06-15T11:29:58.732Z,27.45
2023-06-15T11:33:00.460Z,27.13
2023-06-15T11:36:07.743Z,27.11
2023-06-15T11:39:23.284Z,27.17
2023-06-15T11:42:24.853Z,26.43
2023-06-15T11:45:26.409Z,26.29
2023-06-15T11:48:27.990Z,26.22
2023-06-15T11:51:29.475Z,26.41
2023-06-15T11:54:49.340Z,26.20
2023-06-15T11:57:52.798Z,26.15
2023-06-15T12:00:54.327Z,26.14
2023-06-15T12:04:03.336Z,26.07
2023-06-15T12:07:08.142Z,26.05
2023-06-15T12:10:12.561Z,26.19
2023-06-15T12:13:14.093Z,26.71
2023-06-15T12:16:15.748Z,27.09
2023-06-15T12:19:17.686Z,27.65
2023-06-15T12:22:32.823Z,28.12
2023-06-15T12:25:48.262Z,28.57
2023-06-15T12:28:53.206Z,28.45
2023-06-15T12:31:55.654Z,28.21
2023-06-15T12:34:57.089Z,27.62
2023-06-15T12:37:58.967Z,27.28
2023-06-15T12:41:00.757Z,27.30
2023-06-15T12:44:02.231Z,26.95
2023-06-15T12:47:04.141Z,26.92
2023-06-15T12:50:07.123Z,26.93
2023-06-15T12:53:08.711Z,26.76
2023-06-15T12:56:10.250Z,26.58
2023-06-15T12:59:11.672Z,26.79
2023-06-15T13:02:13.254Z,26.75
2023-06-15T13:05:15.129Z,26.69
2023-06-15T13:08:17.983Z,26.67
2023-06-15T13:11:19.549Z,26.44
2023-06-15T13:14:21.405Z,26.60
2023-06-15T13:17:22.840Z,26.70
2023-06-15T13:20:24.574Z,27.22
2023-06-15T13:23:26.661Z,27.38
2023-06-15T13:26:28.333Z,27.65
2023-06-15T13:29:30.000Z,28.18
2023-06-15T13:32:31.661Z,28.59
2023-06-15T13:35:33.210Z,28.11
2023-06-15T13:38:34.659Z,28.33
2023-06-15T13:41:36.286Z,27.91
2023-06-15T13:44:37.719Z,27.92
2023-06-15T13:47:42.125Z,28.07
2023-06-15T13:50:43.780Z,27.95
2023-06-15T13:53:45.213Z,27.68
2023-06-15T13:56:46.947Z,27.58
2023-06-15T13:59:48.362Z,27.58
2023-06-15T14:02:49.962Z,27.58
2023-06-15T14:05:51.602Z,27.53
2023-06-15T14:08:53.454Z,27.23
2023-06-15T14:11:58.766Z,26.99
2023-06-15T14:15:00.363Z,26.76
2023-06-15T14:18:01.847Z,26.83
2023-06-15T14:21:03.362Z,26.88
2023-06-15T14:24:05.239Z,26.87
2023-06-15T14:27:07.021Z,26.72
2023-06-15T14:30:08.959Z,26.73
2023-06-15T14:33:10.476Z,26.94
2023-06-15T14:36:12.011Z,27.16
2023-06-15T14:39:14.653Z,27.56
2023-06-15T14:42:20.432Z,27.97
2023-06-15T14:45:22.102Z,28.55
2023-06-15T14:48:23.663Z,28.71
2023-06-15T14:51:25.419Z,28.87
2023-06-15T14:54:26.853Z,29.39
2023-06-15T14:57:30.196Z,29.69
2023-06-15T15:00:31.653Z,29.72
2023-06-15T15:03:33.122Z,29.96
2023-06-15T15:06:34.649Z,29.86
2023-06-15T15:09:36.103Z,30.00
2023-06-15T15:12:37.562Z,30.01
2023-06-15T15:15:39.056Z,29.04
2023-06-15T15:18:40.812Z,28.21
2023-06-15T15:21:42.364Z,28.09
2023-06-15T15:24:43.861Z,28.00
2023-06-15T15:27:46.144Z,28.12
2023-06-15T15:30:47.591Z,27.94
2023-06-15T15:33:49.216Z,27.98
2023-06-15T15:36:51.110Z,27.87
2023-06-15T15:39:52.542Z,27.88
2023-06-15T15:42:53.974Z,27.37
2023-06-15T15:45:55.501Z,27.10
2023-06-15T15:48:56.993Z,27.17
2023-06-15T15:51:58.512Z,27.28
2023-06-15T15:55:00.065Z,27.24
2023-06-15T15:58:01.830Z,27.14
2023-06-15T16:01:03.471Z,27.11
2023-06-15T16:04:05.021Z,27.17
2023-06-15T16:07:07.087Z,27.74
2023-06-15T16:10:09.761Z,28.19
2023-06-15T16:13:11.531Z,28.55
2023-06-15T16:16:28.128Z,28.85
2023-06-15T16:19:30.545Z,29.00
2023-06-15T16:22:33.279Z,29.07
2023-06-15T16:25:34.801Z,29.08
2023-06-15T16:28:36.326Z,28.74
2023-06-15T16:31:38.394Z,28.32
2023-06-15T16:34:39.922Z,28.33
2023-06-15T16:37:41.328Z,27.93
2023-06-15T16:40:47.999Z,27.71
2023-06-15T16:43:49.549Z,27.92
2023-06-15T16:46:50.997Z,28.00
2023-06-15T16:49:52.459Z,27.88
2023-06-15T16:52:53.964Z,27.58
2023-06-15T16:55:55.718Z,27.73
2023-06-15T16:58:57.251Z,27.76
2023-06-15T17:01:58.900Z,27.83
2023-06-15T17:05:03.547Z,27.67
2023-06-15T17:08:05.215Z,27.62
2023-06-15T17:11:06.667Z,27.76
2023-06-15T17:14:08.216Z,27.92
2023-06-15T17:17:10.248Z,28.47
2023-06-15T17:20:12.225Z,28.48
2023-06-15T17:23:13.678Z,28.19
2023-06-15T17:26:15.125Z,28.30
2023-06-15T17:29:16.647Z,28.26
2023-06-15T17:32:18.300Z,28.15
2023-06-15T17:35:19.772Z,28.06
2023-06-15T17:38:21.211Z,27.93
2023-06-15T17:41:22.890Z,27.67
2023-06-15T17:44:24.330Z,27.56
2023-06-15T17:47:25.950Z,27.69
2023-06-15T17:50:27.486Z,27.69
2023-06-15T17:53:30.576Z,27.57
2023-06-15T17:56:34.142Z,27.56
2023-06-15T17:59:35.586Z,27.54
2023-06-15T18:02:39.604Z,27.43
2023-06-15T18:05:41.510Z,27.25
2023-06-15T18:08:43.136Z,27.12
2023-06-15T18:11:44.618Z,27.03
2023-06-15T18:14:46.357Z,27.01
2023-06-15T18:17:47.870Z,26.76
2023-06-15T18:20:49.488Z,26.79
2023-06-15T18:23:50.995Z,26.69
2023-06-15T18:26:52.529Z,26.67
2023-06-15T18:29:54.015Z,26.50
2023-06-15T18:32:56.080Z,26.51
2023-06-15T18:35:57.595Z,26.55
2023-06-15T18:38:59.004Z,26.47
2023-06-15T18:42:03.516Z,26.49
2023-06-15T18:45:08.868Z,26.48
2023-06-15T18:48:10.924Z,26.57
2023-06-15T18:51:12.418Z,26.57
2023-06-15T18:54:13.845Z,26.54
2023-06-15T18:57:17.995Z,26.50
2023-06-15T19:00:19.507Z,26.45
2023-06-15T19:03:21.171Z,26.46
2023-06-15T19:06:22.638Z,26.44
2023-06-15T19:09:24.081Z,26.35
2023-06-15T19:12:25.590Z,26.23
2023-06-15T19:15:27.003Z,26.12
2023-06-15T19:18:28.549Z,26.10
2023-06-15T19:21:30.193Z,26.09
2023-06-15T19:24:32.382Z,25.98
2023-06-15T19:27:33.993Z,25.85
2023-06-15T19:30:35.607Z,25.73
2023-06-15T19:33:37.185Z,25.46
2023-06-15T19:36:38.666Z,25.31
2023-06-15T19:39:40.135Z,25.29
2023-06-15T19:42:42.558Z,25.21
2023-06-15T19:45:44.649Z,25.08
2023-06-15T19:48:46.289Z,25.01
2023-06-15T19:51:47.812Z,24.98
2023-06-15T19:54:49.352Z,24.84
2023-06-15T19:57:50.851Z,24.79
2023-06-15T20:00:52.345Z,24.72
2023-06-15T20:03:56.827Z,24.56
2023-06-15T20:06:59.401Z,24.30
2023-06-15T20:10:01.657Z,23.95
2023-06-15T20:13:03.891Z,23.78
2023-06-15T20:16:13.101Z,23.61
2023-06-15T20:19:16.520Z,23.42
2023-06-15T20:22:18.235Z,23.35
2023-06-15T20:25:19.714Z,23.37
2023-06-15T20:28:21.218Z,23.37
2023-06-15T20:31:23.043Z,23.21
2023-06-15T20:34:24.486Z,22.92
2023-06-15T20:37:28.684Z,22.80
2023-06-15T20:40:30.487Z,22.77
2023-06-15T20:43:32.433Z,22.59
2023-06-15T20:46:34.154Z,22.70
2023-06-15T20:49:35.853Z,22.65
2023-06-15T20:52:43.231Z,22.38
2023-06-15T20:55:44.742Z,22.42
2023-06-15T20:58:46.316Z,22.38
2023-06-15T21:01:47.791Z,22.33
2023-06-15T21:04:54.008Z,22.17
2023-06-15T21:07:58.740Z,22.12
2023-06-15T21:11:01.008Z,22.07
2023-06-15T21:14:02.670Z,22.04
2023-06-15T21:17:04.505Z,22.05
2023-06-15T21:20:07.227Z,22.03
2023-06-15T21:23:09.212Z,21.89
2023-06-15T21:26:10.839Z,21.75
2023-06-15T21:29:12.876Z,21.68
2023-06-15T21:32:14.481Z,21.64
2023-06-15T21:35:15.987Z,21.66
2023-06-15T21:38:18.515Z,21.71
2023-06-15T21:41:20.084Z,21.77
2023-06-15T21:44:21.570Z,21.58
2023-06-15T21:47:23.616Z,21.44
2023-06-15T21:50:27.003Z,21.53
2023-06-15T21:53:28.796Z,21.34
2023-06-15T21:56:30.355Z,20.97
2023-06-15T21:59:32.083Z,21.00
2023-06-15T22:02:33.568Z,20.96
2023-06-15T22:05:35.066Z,20.97
2023-06-15T22:08:36.547Z,21.04
2023-06-15T22:11:38.038Z,20.84
2023-06-15T22:14:39.531Z,20.81
2023-06-15T22:17:42.165Z,20.90
2023-06-15T22:20:50.141Z,20.90
2023-06-15T22:23:51.613Z,20.92
2023-06-15T22:26:53.047Z,20.89
2023-06-15T22:29:54.490Z,20.90
2023-06-15T22:32:56.545Z,20.87
2023-06-15T22:35:58.021Z,20.79
2023-06-15T22:38:59.676Z,20.81
2023-06-15T22:42:01.188Z,20.69
2023-06-15T22:45:02.713Z,20.58
2023-06-15T22:48:05.375Z,20.54
2023-06-15T22:51:06.905Z,20.57
2023-06-15T22:54:08.330Z,20.71
2023-06-15T22:57:11.666Z,20.56
2023-06-15T23:00:14.309Z,20.32
2023-06-15T23:03:16.701Z,20.28
2023-06-15T23:06:20.082Z,20.35
2023-06-15T23:09:21.949Z,20.34
2023-06-15T23:12:25.896Z,20.30
2023-06-15T23:15:33.224Z,20.14
2023-06-15T23:18:36.785Z,20.21
2023-06-15T23:21:40.495Z,20.22
2023-06-15T23:24:41.982Z,20.02
2023-06-15T23:27:43.413Z,19.71
2023-06-15T23:30:44.876Z,19.73
2023-06-15T23:33:46.439Z,19.88
2023-06-15T23:36:47.919Z,19.99
2023-06-15T23:39:49.487Z,20.05
2023-06-15T23:42:50.983Z,20.08
2023-06-15T23:45:52.496Z,20.04
2023-06-15T23:48:54.343Z,19.88
2023-06-15T23:51:55.846Z,19.94
2023-06-15T23:54:57.377Z,20.02
2023-06-15T23:57:58.806Z,19.92
